createdAt,value
2022-09-30T00:00:56.240Z,14.37
2022-09-30T00:04:59.356Z,14.38
2022-09-30T00:09:04.960Z,14.41
2022-09-30T00:13:07.868Z,14.40
2022-09-30T00:17:10.887Z,14.37
2022-09-30T00:21:16.262Z,14.35
2022-09-30T00:25:20.595Z,14.34
2022-09-30T00:29:23.502Z,14.32
2022-09-30T00:33:26.456Z,14.31
2022-09-30T00:37:29.768Z,14.30
2022-09-30T00:41:34.218Z,14.31
2022-09-30T00:45:37.200Z,14.32
2022-09-30T00:49:40.275Z,14.32
2022-09-30T00:53:50.300Z,14.34
2022-09-30T00:57:56.320Z,14.36
2022-09-30T01:01:59.304Z,14.34
2022-09-30T01:06:03.323Z,14.31
2022-09-30T01:10:06.715Z,14.28
2022-09-30T01:14:14.987Z,14.28
2022-09-30T01:18:25.678Z,14.28
2022-09-30T01:22:42.077Z,14.27
2022-09-30T01:27:04.451Z,14.28
2022-09-30T01:31:19.519Z,14.28
2022-09-30T01:35:33.091Z,14.26
2022-09-30T01:39:43.765Z,14.28
2022-09-30T01:43:53.232Z,14.28
2022-09-30T01:48:01.872Z,14.28
2022-09-30T01:52:09.603Z,14.27
2022-09-30T01:56:18.015Z,14.29
2022-09-30T02:00:21.277Z,14.29
2022-09-30T02:04:32.448Z,14.28
2022-09-30T02:08:42.426Z,14.27
2022-09-30T02:12:51.690Z,14.26
2022-09-30T02:17:02.283Z,14.25
2022-09-30T02:21:10.244Z,14.26
2022-09-30T02:25:20.322Z,14.23
2022-09-30T02:29:30.416Z,14.20
2022-09-30T02:33:37.963Z,14.17
2022-09-30T02:37:45.020Z,14.13
2022-09-30T02:41:53.159Z,14.14
2022-09-30T02:46:06.766Z,14.10
2022-09-30T02:50:17.977Z,14.07
2022-09-30T02:54:32.636Z,14.04
2022-09-30T02:58:39.637Z,14.00
2022-09-30T03:02:43.423Z,13.94
2022-09-30T03:06:46.407Z,13.91
2022-09-30T03:10:52.687Z,13.88
2022-09-30T03:15:20.466Z,13.87
2022-09-30T03:19:42.295Z,13.83
2022-09-30T03:24:06.929Z,13.80
2022-09-30T03:28:23.110Z,13.78
2022-09-30T03:32:41.463Z,13.74
2022-09-30T03:36:53.006Z,13.77
2022-09-30T03:41:04.323Z,13.76
2022-09-30T03:45:13.492Z,13.74
2022-09-30T03:49:22.786Z,13.71
2022-09-30T03:53:26.294Z,13.69
2022-09-30T03:57:30.242Z,13.68
2022-09-30T04:01:34.749Z,13.66
2022-09-30T04:05:37.890Z,13.66
2022-09-30T04:09:41.298Z,13.68
2022-09-30T04:13:44.497Z,13.68
2022-09-30T04:17:49.657Z,13.63
2022-09-30T04:21:54.003Z,13.58
2022-09-30T04:25:57.075Z,13.51
2022-09-30T04:29:59.992Z,13.48
2022-09-30T04:34:04.514Z,13.49
2022-09-30T04:38:07.560Z,13.48
2022-09-30T04:42:11.318Z,13.49
2022-09-30T04:46:14.539Z,13.45
2022-09-30T04:50:19.578Z,13.41
2022-09-30T04:54:23.250Z,13.33
2022-09-30T04:58:26.405Z,13.27
2022-09-30T05:02:29.405Z,13.23
2022-09-30T05:06:35.319Z,13.21
2022-09-30T05:10:40.159Z,13.15
2022-09-30T05:14:43.052Z,13.10
2022-09-30T05:18:47.024Z,13.09
2022-09-30T05:23:01.469Z,13.06
2022-09-30T05:27:05.100Z,13.06
2022-09-30T05:31:08.303Z,13.05
2022-09-30T05:35:12.251Z,13.05
2022-09-30T05:39:16.791Z,12.97
2022-09-30T05:43:20.485Z,12.98
2022-09-30T05:47:24.051Z,12.97
2022-09-30T05:51:27.043Z,12.96
2022-09-30T05:56:20.439Z,12.95
2022-09-30T06:17:24.777Z,12.99
2022-09-30T06:21:29.027Z,13.02
2022-09-30T06:25:32.617Z,13.04
2022-09-30T06:29:35.445Z,13.02
2022-09-30T06:33:39.907Z,13.03
2022-09-30T06:38:33.507Z,13.05
2022-09-30T07:09:19.170Z,11.10
2022-09-30T07:13:22.298Z,11.11
2022-09-30T07:17:25.173Z,11.10
2022-09-30T07:21:30.514Z,11.15
2022-09-30T07:25:36.170Z,11.19
2022-09-30T07:30:03.974Z,11.25
2022-09-30T07:34:02.823Z,11.27
2022-09-30T07:38:05.783Z,11.22
2022-09-30T07:42:10.105Z,11.15
2022-09-30T07:46:16.566Z,11.11
2022-09-30T07:55:47.717Z,11.08
2022-09-30T07:59:51.915Z,11.12
2022-09-30T08:03:57.089Z,11.15
2022-09-30T08:08:00.510Z,11.16
2022-09-30T08:12:04.785Z,11.23
2022-09-30T08:16:09.443Z,11.26
2022-09-30T08:20:13.828Z,11.30
2022-09-30T08:24:18.665Z,11.30
2022-09-30T08:28:21.649Z,11.28
2022-09-30T08:32:26.315Z,11.31
2022-09-30T08:36:29.449Z,11.33
2022-09-30T08:40:39.173Z,11.30
2022-09-30T08:44:44.797Z,11.36
2022-09-30T08:49:03.331Z,11.48
2022-09-30T08:53:12.649Z,11.54
2022-09-30T08:57:15.921Z,11.59
2022-09-30T09:01:26.319Z,11.65
2022-09-30T09:05:40.245Z,11.64
2022-09-30T09:09:54.638Z,11.67
2022-09-30T09:14:03.658Z,11.59
2022-09-30T09:18:28.662Z,11.64
2022-09-30T09:22:34.468Z,11.77
2022-09-30T09:26:38.346Z,11.92
2022-09-30T09:30:48.642Z,11.99
2022-09-30T09:34:54.627Z,12.02
2022-09-30T09:39:12.442Z,12.02
2022-09-30T09:43:26.271Z,11.97
2022-09-30T09:47:32.268Z,11.94
2022-09-30T09:51:40.976Z,12.00
2022-09-30T09:55:45.449Z,12.04
2022-09-30T10:04:17.739Z,12.19
2022-09-30T10:08:22.835Z,12.26
2022-09-30T10:12:29.969Z,12.35
2022-09-30T10:16:35.892Z,12.43
2022-09-30T10:20:38.912Z,12.50
2022-09-30T10:24:42.092Z,12.56
2022-09-30T10:28:49.881Z,12.60
2022-09-30T10:32:53.110Z,12.61
2022-09-30T10:36:57.195Z,12.69
2022-09-30T10:41:00.453Z,12.71
2022-09-30T10:45:10.136Z,12.83
2022-09-30T10:49:26.654Z,12.96
2022-09-30T10:53:33.775Z,13.06
2022-09-30T10:57:38.257Z,13.17
2022-09-30T11:01:51.532Z,13.23
2022-09-30T11:06:00.604Z,13.32
2022-09-30T11:10:10.105Z,13.34
2022-09-30T11:14:28.184Z,13.37
2022-09-30T11:18:38.950Z,13.37
2022-09-30T11:22:48.272Z,13.36
2022-09-30T11:27:00.050Z,13.37
2022-09-30T11:31:13.702Z,13.35
2022-09-30T11:35:30.661Z,13.37
2022-09-30T11:39:51.955Z,13.43
2022-09-30T11:44:05.552Z,13.55
2022-09-30T11:48:23.291Z,13.71
2022-09-30T11:52:36.074Z,13.80
2022-09-30T11:56:49.474Z,13.82
2022-09-30T12:00:58.063Z,13.89
2022-09-30T12:05:07.283Z,13.94
2022-09-30T12:09:21.930Z,13.98
2022-09-30T12:13:28.633Z,13.97
2022-09-30T12:17:36.889Z,13.98
2022-09-30T12:21:43.905Z,14.02
2022-09-30T12:25:53.609Z,14.13
2022-09-30T12:30:21.032Z,14.26
2022-09-30T12:34:39.637Z,14.29
2022-09-30T12:38:59.007Z,14.32
2022-09-30T12:43:23.964Z,14.44
2022-09-30T12:47:36.752Z,14.48
2022-09-30T12:51:44.912Z,14.55
2022-09-30T12:55:48.381Z,14.54
2022-09-30T12:59:55.750Z,14.51
2022-09-30T13:04:17.750Z,14.47
2022-09-30T13:08:32.675Z,14.47
2022-09-30T13:12:43.981Z,14.54
2022-09-30T13:17:02.635Z,14.57
2022-09-30T13:21:21.747Z,14.61
2022-09-30T13:25:24.737Z,14.65
2022-09-30T13:29:39.930Z,14.72
2022-09-30T13:34:09.159Z,14.77
2022-09-30T13:38:20.291Z,14.81
2022-09-30T13:42:30.055Z,14.87
2022-09-30T13:46:39.953Z,14.96
2022-09-30T13:50:48.875Z,14.94
2022-09-30T13:54:54.966Z,14.89
2022-09-30T13:59:36.068Z,14.85
2022-09-30T14:03:57.810Z,14.81
2022-09-30T14:08:24.721Z,14.80
2022-09-30T14:12:49.913Z,14.79
2022-09-30T14:17:15.180Z,14.77
2022-09-30T14:21:35.173Z,14.80
2022-09-30T14:25:46.205Z,14.86
2022-09-30T14:29:58.253Z,14.87
2022-09-30T14:34:01.438Z,14.88
2022-09-30T14:38:07.138Z,14.92
2022-09-30T14:42:19.782Z,14.86
2022-09-30T14:46:30.678Z,14.88
2022-09-30T14:50:40.729Z,14.84
2022-09-30T14:54:49.370Z,14.81
2022-09-30T14:58:57.196Z,14.82
2022-09-30T15:03:01.107Z,14.82
2022-09-30T15:07:07.205Z,14.84
2022-09-30T15:11:10.494Z,14.85
2022-09-30T15:15:35.257Z,14.89
2022-09-30T15:19:44.271Z,14.90
2022-09-30T15:23:51.502Z,14.93
2022-09-30T15:27:55.299Z,14.93
2022-09-30T15:32:03.869Z,14.92
2022-09-30T15:36:09.693Z,14.87
2022-09-30T15:40:33.276Z,14.85
2022-09-30T15:44:40.642Z,14.84
2022-09-30T15:48:45.239Z,14.85
2022-09-30T15:52:48.750Z,14.84
2022-09-30T15:56:52.134Z,14.80
2022-09-30T16:01:10.220Z,14.77
2022-09-30T16:05:14.572Z,14.74
2022-09-30T16:09:23.476Z,14.76
2022-09-30T16:13:29.960Z,14.76
2022-09-30T16:17:36.372Z,14.74
2022-09-30T16:21:50.671Z,14.74
2022-09-30T16:26:13.663Z,14.74
2022-09-30T16:30:18.679Z,14.72
2022-09-30T16:34:24.675Z,14.68
2022-09-30T16:38:29.004Z,14.65
2022-09-30T16:42:33.103Z,14.63
2022-09-30T16:46:36.138Z,14.61
2022-09-30T16:50:43.196Z,14.60
2022-09-30T16:54:47.466Z,14.58
2022-09-30T16:58:50.575Z,14.57
2022-09-30T17:02:53.934Z,14.56
2022-09-30T17:06:58.943Z,14.55
2022-09-30T17:11:03.326Z,14.53
2022-09-30T17:15:06.853Z,14.51
2022-09-30T17:19:13.179Z,14.48
2022-09-30T17:23:17.849Z,14.44
2022-09-30T17:27:22.614Z,14.41
2022-09-30T17:31:29.335Z,14.37
2022-09-30T17:35:33.302Z,14.36
2022-09-30T17:39:36.181Z,14.33
2022-09-30T17:43:40.576Z,14.34
2022-09-30T17:47:43.952Z,14.30
2022-09-30T17:51:46.995Z,14.27
2022-09-30T17:56:01.503Z,14.25
2022-09-30T18:00:07.073Z,14.25
2022-09-30T18:04:11.324Z,14.23
2022-09-30T18:08:14.215Z,14.24
2022-09-30T18:12:17.417Z,14.23
2022-09-30T18:16:21.697Z,14.24
2022-09-30T18:20:25.637Z,14.23
2022-09-30T18:24:46.804Z,14.19
2022-09-30T18:28:50.809Z,14.17
2022-09-30T18:32:56.253Z,14.15
2022-09-30T18:37:06.673Z,14.14
2022-09-30T18:41:09.570Z,14.13
2022-09-30T18:45:14.133Z,14.11
2022-09-30T18:49:18.778Z,14.13
2022-09-30T18:53:22.312Z,14.12
2022-09-30T18:57:25.647Z,14.13
2022-09-30T19:01:28.815Z,14.13
2022-09-30T19:05:33.229Z,14.11
2022-09-30T19:09:36.473Z,14.12
2022-09-30T19:13:39.916Z,14.11
2022-09-30T19:17:43.144Z,14.07
2022-09-30T19:21:49.251Z,14.03
2022-09-30T19:25:54.386Z,14.02
2022-09-30T19:29:59.467Z,14.00
2022-09-30T19:34:02.941Z,14.00
2022-09-30T19:38:07.296Z,13.97
2022-09-30T19:42:11.923Z,13.95
2022-09-30T19:46:15.074Z,13.92
2022-09-30T19:50:18.243Z,13.92
2022-09-30T19:54:36.209Z,13.89
2022-09-30T19:58:45.018Z,13.85
2022-09-30T20:02:48.387Z,13.83
2022-09-30T20:06:53.763Z,13.80
2022-09-30T20:11:05.332Z,13.77
2022-09-30T20:15:37.421Z,13.77
2022-09-30T20:19:40.778Z,13.74
2022-09-30T20:23:45.908Z,13.70
2022-09-30T20:27:52.633Z,13.67
2022-09-30T20:31:55.971Z,13.65
2022-09-30T20:36:00.881Z,13.62
2022-09-30T20:40:04.758Z,13.62
2022-09-30T20:44:12.101Z,13.61
2022-09-30T20:48:15.629Z,13.59
2022-09-30T20:52:19.223Z,13.60
2022-09-30T20:56:23.474Z,13.60
2022-09-30T21:00:28.588Z,13.59
2022-09-30T21:04:31.460Z,13.55
2022-09-30T21:08:38.703Z,13.51
2022-09-30T21:12:42.910Z,13.48
2022-09-30T21:16:47.295Z,13.46
2022-09-30T21:20:57.454Z,13.43
2022-09-30T21:25:00.398Z,13.43
2022-09-30T21:29:04.117Z,13.42
2022-09-30T21:33:08.645Z,13.40
2022-09-30T21:37:11.996Z,13.40
2022-09-30T21:41:15.075Z,13.41
2022-09-30T21:45:20.088Z,13.35
2022-09-30T21:49:25.232Z,13.29
2022-09-30T21:53:29.277Z,13.21
2022-09-30T21:57:32.134Z,13.18
2022-09-30T22:01:35.556Z,13.19
2022-09-30T22:05:40.286Z,13.19
2022-09-30T22:09:43.447Z,13.16
2022-09-30T22:13:47.345Z,13.11
2022-09-30T22:17:51.362Z,13.07
2022-09-30T22:21:55.607Z,13.08
2022-09-30T22:25:58.581Z,13.07
2022-09-30T22:30:01.770Z,13.01
2022-09-30T22:34:26.207Z,13.01
2022-09-30T22:38:31.119Z,12.99
2022-09-30T22:42:35.764Z,12.91
2022-09-30T22:46:39.797Z,12.92
2022-09-30T22:50:42.857Z,12.88
2022-09-30T22:54:47.116Z,12.85
2022-09-30T22:58:49.975Z,12.84
2022-09-30T23:02:52.884Z,12.83
2022-09-30T23:06:56.608Z,12.78
2022-09-30T23:11:01.337Z,12.78
2022-09-30T23:15:05.379Z,12.77
2022-09-30T23:19:08.237Z,12.77
2022-09-30T23:23:11.337Z,12.73
2022-09-30T23:27:15.652Z,12.69
2022-09-30T23:31:19.679Z,12.71
2022-09-30T23:35:22.587Z,12.71
2022-09-30T23:39:25.712Z,12.68
2022-09-30T23:43:31.610Z,12.66
2022-09-30T23:47:34.531Z,12.65
2022-09-30T23:51:37.405Z,12.65
2022-09-30T23:55:40.893Z,12.64
2022-09-30T23:59:45.184Z,12.63
